createdAt,value
2023-04-06T00:02:49.810Z,40.2
2023-04-06T00:07:53.145Z,40.2
2023-04-06T00:12:53.265Z,40.1
2023-04-06T00:17:54.005Z,40.1
2023-04-06T00:22:57.397Z,40
2023-04-06T00:27:57.413Z,40
2023-04-06T00:32:58.044Z,40
2023-04-06T00:37:58.921Z,39.9
2023-04-06T00:42:59.367Z,40
2023-04-06T00:47:59.802Z,40
2023-04-06T00:53:00.127Z,40
2023-04-06T00:58:03.347Z,39.9
2023-04-06T01:03:06.237Z,40
2023-04-06T01:08:09.194Z,39.8
2023-04-06T01:13:11.942Z,39.8
2023-04-06T01:18:12.032Z,39.8
2023-04-06T01:23:12.637Z,39.9
2023-04-06T01:28:13.206Z,39.9
2023-04-06T01:33:13.827Z,39.9
2023-04-06T01:38:14.446Z,39.8
2023-04-06T01:43:15.229Z,39.7
2023-04-06T01:48:18.652Z,39.7
2023-04-06T01:53:21.502Z,39.6
2023-04-06T01:58:21.513Z,39.6
2023-04-06T02:03:22.202Z,39.7
2023-04-06T02:08:22.623Z,39.5
2023-04-06T02:13:23.191Z,39.5
2023-04-06T02:18:23.766Z,39.4
2023-04-06T02:23:24.619Z,39.3
2023-04-06T02:28:27.863Z,39.3
2023-04-06T02:33:30.659Z,39.3
2023-04-06T02:38:30.664Z,39.3
2023-04-06T02:43:33.784Z,39.3
2023-04-06T02:48:33.755Z,39.3
2023-04-06T02:53:34.060Z,39.3
2023-04-06T02:58:37.541Z,39.3
2023-04-06T03:03:40.585Z,39.3
2023-04-06T03:08:40.647Z,39.4
2023-04-06T03:13:39.972Z,39.4
2023-04-06T03:18:43.497Z,39.5
2023-04-06T03:23:47.341Z,39.3
2023-04-06T03:28:50.025Z,39.3
2023-04-06T03:33:52.657Z,39.3
2023-04-06T03:38:55.537Z,39.3
2023-04-06T03:43:58.371Z,39.3
2023-04-06T03:49:01.422Z,39.3
2023-04-06T03:54:01.227Z,39.3
2023-04-06T03:59:03.656Z,39.4
2023-04-06T04:04:09.294Z,39.4
2023-04-06T04:09:09.359Z,39.4
2023-04-06T04:14:09.637Z,39.4
2023-04-06T04:19:10.193Z,39.4
2023-04-06T04:24:10.460Z,39.3
2023-04-06T04:29:10.950Z,39.3
2023-04-06T04:34:13.934Z,39.3
2023-04-06T04:39:16.881Z,39.2
2023-04-06T04:44:19.979Z,39.2
2023-04-06T04:49:20.199Z,39.3
2023-04-06T04:54:20.711Z,39.2
2023-04-06T04:59:21.309Z,39.3
2023-04-06T05:04:21.935Z,39.3
2023-04-06T05:09:22.516Z,39.4
2023-04-06T05:14:23.259Z,39.5
2023-04-06T05:19:23.989Z,39.4
2023-04-06T05:24:24.396Z,39.4
2023-04-06T05:29:24.917Z,39.5
2023-04-06T05:34:25.381Z,39.7
2023-04-06T05:39:26.827Z,39.7
2023-04-06T05:44:27.084Z,39.8
2023-04-06T05:49:27.166Z,39.9
2023-04-06T05:54:30.346Z,40
2023-04-06T05:59:30.595Z,39.9
2023-04-06T06:04:33.954Z,40
2023-04-06T06:09:34.057Z,40
2023-04-06T06:14:34.567Z,40.1
2023-04-06T06:19:35.005Z,40.1
2023-04-06T06:24:34.430Z,40
2023-04-06T06:29:35.308Z,39.9
2023-04-06T06:34:35.986Z,39.8
2023-04-06T06:39:39.454Z,39.7
2023-04-06T06:44:39.496Z,39.5
2023-04-06T06:49:40.255Z,39.5
2023-04-06T06:54:45.331Z,39.3
2023-04-06T06:59:45.222Z,39.3
2023-04-06T07:04:45.898Z,39.3
2023-04-06T07:09:46.463Z,39.3
2023-04-06T07:14:49.960Z,39.4
2023-04-06T07:19:50.152Z,39.4
2023-04-06T07:24:50.874Z,39.4
2023-04-06T07:29:51.606Z,39.4
2023-04-06T07:34:52.362Z,39.4
2023-04-06T07:39:52.903Z,39.4
2023-04-06T07:44:53.586Z,39.4
2023-04-06T07:49:56.741Z,39.5
2023-04-06T07:54:56.999Z,39.5
2023-04-06T08:00:00.605Z,39.5
2023-04-06T08:05:01.574Z,39.6
2023-04-06T08:10:02.072Z,39.6
2023-04-06T08:15:02.704Z,39.6
2023-04-06T08:20:03.452Z,39.7
2023-04-06T08:25:03.776Z,39.7
2023-04-06T08:30:05.223Z,39.7
2023-04-06T08:35:07.741Z,39.6
2023-04-06T08:40:08.933Z,39.6
2023-04-06T08:45:09.329Z,39.6
2023-04-06T08:50:09.891Z,39.6
2023-04-06T08:55:10.588Z,39.6
2023-04-06T09:00:11.176Z,39.5
2023-04-06T09:05:14.541Z,39.4
2023-04-06T09:10:14.661Z,39.4
2023-04-06T09:15:15.003Z,39.4
2023-04-06T09:20:15.609Z,39.3
2023-04-06T09:25:15.897Z,39.3
2023-04-06T09:30:19.286Z,39.1
2023-04-06T09:35:21.897Z,39.1
2023-04-06T09:40:24.835Z,39.2
2023-04-06T09:45:25.068Z,39.3
2023-04-06T09:50:25.800Z,39.3
2023-04-06T09:55:29.139Z,39.1
2023-04-06T10:00:32.083Z,39.2
2023-04-06T10:05:32.201Z,39.1
2023-04-06T10:10:32.866Z,39.3
2023-04-06T10:15:33.552Z,39
2023-04-06T10:20:34.205Z,38.8
2023-04-06T10:25:34.397Z,38.8
2023-04-06T10:30:35.264Z,38.9
2023-04-06T10:35:35.857Z,38.9
2023-04-06T10:40:39.256Z,38.9
2023-04-06T10:45:39.369Z,38.8
2023-04-06T10:50:42.772Z,38.8
2023-04-06T10:55:45.576Z,38.8
2023-04-06T11:00:50.501Z,38.8
2023-04-06T11:05:49.101Z,38.8
2023-04-06T11:10:51.842Z,38.8
2023-04-06T11:15:59.956Z,38.7
2023-04-06T11:20:59.530Z,38.7
2023-04-06T11:26:02.566Z,38.7
2023-04-06T11:31:05.208Z,38.8
2023-04-06T11:36:08.163Z,38.9
2023-04-06T11:41:09.902Z,39
2023-04-06T11:46:10.335Z,39
2023-04-06T11:51:10.872Z,39.1
2023-04-06T11:56:11.349Z,39.1
2023-04-06T12:01:12.129Z,39.2
2023-04-06T12:06:12.788Z,39.2
2023-04-06T12:11:13.201Z,39.2
2023-04-06T12:16:13.918Z,39.3
2023-04-06T12:21:14.712Z,39.4
2023-04-06T12:26:15.667Z,39.4
2023-04-06T12:31:16.211Z,39.4
2023-04-06T12:36:16.688Z,39.4
2023-04-06T12:41:20.092Z,39.4
2023-04-06T12:46:20.179Z,39.4
2023-04-06T12:51:20.713Z,39.4
2023-04-06T12:56:21.778Z,39.3
2023-04-06T13:01:22.386Z,39.3
2023-04-06T13:06:22.858Z,39.3
2023-04-06T13:11:27.847Z,39.2
2023-04-06T13:16:28.309Z,39.2
2023-04-06T13:21:31.153Z,39.2
2023-04-06T13:26:31.231Z,39.2
2023-04-06T13:31:31.511Z,39.2
2023-04-06T13:36:32.028Z,39.2
2023-04-06T13:41:35.348Z,39.2
2023-04-06T13:46:35.363Z,39.2
2023-04-06T13:51:38.812Z,39.2
2023-04-06T13:56:38.768Z,39.1
2023-04-06T14:01:39.397Z,39.1
2023-04-06T14:06:42.518Z,39.1
2023-04-06T14:11:42.234Z,39
2023-04-06T14:16:46.651Z,38.9
2023-04-06T14:21:46.619Z,38.8
2023-04-06T14:26:47.145Z,38.7
2023-04-06T14:31:53.993Z,38.7
2023-04-06T14:36:53.643Z,38.7
2023-04-06T14:41:56.727Z,38.6
2023-04-06T14:46:56.645Z,38.6
2023-04-06T14:51:57.098Z,38.6
2023-04-06T14:56:57.648Z,38.5
2023-04-06T15:02:01.047Z,38.5
2023-04-06T15:07:01.054Z,38.4
2023-04-06T15:12:04.329Z,38.4
2023-04-06T15:17:04.342Z,38.5
2023-04-06T15:22:07.482Z,38.4
2023-04-06T15:27:07.682Z,38.3
2023-04-06T15:32:07.999Z,38.2
2023-04-06T15:37:08.535Z,38.2
2023-04-06T15:42:09.331Z,38.1
2023-04-06T15:47:10.046Z,38.1
2023-04-06T15:52:10.522Z,38.1
2023-04-06T15:57:11.024Z,38.1
2023-04-06T16:02:11.764Z,38
2023-04-06T16:07:14.906Z,38
2023-04-06T16:12:17.803Z,38
2023-04-06T16:17:17.815Z,38
2023-04-06T16:22:18.327Z,38
2023-04-06T16:27:17.572Z,38.1
2023-04-06T16:32:37.603Z,38
2023-04-06T16:37:35.663Z,38.1
2023-04-06T16:42:35.990Z,38.1
2023-04-06T16:47:36.510Z,38.2
2023-04-06T16:52:37.221Z,38.2
2023-04-06T16:57:40.732Z,38.2
2023-04-06T17:02:42.098Z,38.2
2023-04-06T17:07:42.121Z,38.2
2023-04-06T17:12:58.224Z,38.2
2023-04-06T17:18:08.078Z,38.3
2023-04-06T17:23:06.881Z,38.4
2023-04-06T17:28:10.074Z,38.3
2023-04-06T17:33:10.021Z,38.3
2023-04-06T17:38:10.583Z,38.3
2023-04-06T17:43:11.257Z,38.4
2023-04-06T17:48:12.103Z,38.4
2023-04-06T17:53:12.321Z,38.4
2023-04-06T17:58:15.413Z,38.5
2023-04-06T18:03:15.743Z,38.5
2023-04-06T18:08:16.088Z,38.5
2023-04-06T18:13:16.615Z,38.5
2023-04-06T18:18:17.316Z,38.5
2023-04-06T18:23:17.896Z,38.6
2023-04-06T18:28:18.221Z,38.7
2023-04-06T18:33:18.370Z,38.7
2023-04-06T18:38:21.714Z,38.8
2023-04-06T18:43:21.763Z,38.8
2023-04-06T18:48:22.226Z,38.7
2023-04-06T18:53:25.616Z,38.9
2023-04-06T18:58:25.709Z,38.9
2023-04-06T19:03:35.955Z,38.9
2023-04-06T19:08:34.989Z,39
2023-04-06T19:13:38.346Z,39
2023-04-06T19:18:42.381Z,39.1
2023-04-06T19:23:42.463Z,39.1
2023-04-06T19:28:43.036Z,39.1
2023-04-06T19:33:43.796Z,39.1
2023-04-06T19:38:44.207Z,39.2
2023-04-06T19:43:44.870Z,39.2
2023-04-06T19:48:45.587Z,39.2
2023-04-06T19:53:48.688Z,39.2
2023-04-06T19:58:48.650Z,39.2
2023-04-06T20:03:52.074Z,39.2
2023-04-06T20:08:52.042Z,39.3
2023-04-06T20:13:55.336Z,39.3
2023-04-06T20:18:55.470Z,39.3
2023-04-06T20:23:55.902Z,39.3
2023-04-06T20:28:58.566Z,39.3
2023-04-06T20:34:05.271Z,39.4
2023-04-06T20:39:09.859Z,39.4
2023-04-06T20:44:18.724Z,39.4
2023-04-06T20:49:17.811Z,39.4
2023-04-06T20:54:18.354Z,39.4
2023-04-06T20:59:18.633Z,39.4
2023-04-06T21:04:19.472Z,39.4
2023-04-06T21:09:19.895Z,39.4
2023-04-06T21:14:23.498Z,39.4
2023-04-06T21:19:23.247Z,39.4
2023-04-06T21:24:26.548Z,39.4
2023-04-06T21:29:26.646Z,39.4
2023-04-06T21:34:30.035Z,39.3
2023-04-06T21:39:30.063Z,39.4
2023-04-06T21:44:31.273Z,39.3
2023-04-06T21:49:31.662Z,39.4
2023-04-06T21:54:32.131Z,39.4
2023-04-06T21:59:32.508Z,39.4
2023-04-06T22:04:32.978Z,39.4
2023-04-06T22:09:33.352Z,39.4
2023-04-06T22:14:34.961Z,39.3
2023-04-06T22:19:35.421Z,39.3
2023-04-06T22:24:36.256Z,39.4
2023-04-06T22:29:39.348Z,39.4
2023-04-06T22:34:38.421Z,39.3
2023-04-06T22:39:42.629Z,39.3
2023-04-06T22:44:41.404Z,39.3
2023-04-06T22:49:41.976Z,39.3
2023-04-06T22:54:42.380Z,39.2
2023-04-06T22:59:43.048Z,39.2
2023-04-06T23:04:43.344Z,39.3
2023-04-06T23:09:43.953Z,39.2
2023-04-06T23:14:44.226Z,39.3
2023-04-06T23:19:44.752Z,39.3
2023-04-06T23:24:45.318Z,39.2
2023-04-06T23:29:45.702Z,39.2
2023-04-06T23:34:49.054Z,39.2
2023-04-06T23:39:51.757Z,39.3
2023-04-06T23:44:51.867Z,39.3
2023-04-06T23:49:51.239Z,39.3
2023-04-06T23:54:52.029Z,39.2
2023-04-06T23:59:52.607Z,39.3
